Time;durP1;ratioP1;P1;durP2;ratioP2;P2;SDS_P1;SDS_P2;PMS_P1;PMS_P2;Temp;Humidity;BMP_temperature;BMP_pressure;BME280_temperature;BME280_humidity;BME280_pressure;Samples;Min_cycle;Max_cycle;Signal;HPM_P1;HPM_P2
2021/12/31 00:00:15;;;;;;;15.48;6.87;;;;;;;7.13;100.00;98465.53;4395487;32;20047;-73
2021/12/31 00:03:02;;;;;;;16.60;6.50;;;;;;;7.19;100.00;98481.44;4393545;32;20483;-73
2021/12/31 00:05:28;;;;;;;16.48;7.70;;;;;;;7.25;100.00;98479.66;4394049;32;20128;-73
2021/12/31 00:07:55;;;;;;;26.80;6.72;;;;;;;7.47;100.00;98493.16;4394500;32;20421;-74
2021/12/31 00:10:21;;;;;;;16.45;6.85;;;;;;;7.23;100.00;98455.81;4391858;32;20026;-72
2021/12/31 00:12:48;;;;;;;11.95;7.03;;;;;;;7.46;100.00;98481.63;4394304;32;20046;-73
2021/12/31 00:15:15;;;;;;;20.83;6.43;;;;;;;7.62;100.00;98490.72;4392543;32;20046;-72
2021/12/31 00:17:41;;;;;;;12.82;6.60;;;;;;;7.64;100.00;98499.34;4393415;32;20064;-73
2021/12/31 00:20:16;;;;;;;25.73;6.80;;;;;;;7.71;100.00;98503.72;4396524;32;20497;-74
2021/12/31 00:25:10;;;;;;;18.40;6.90;;;;;;;7.49;100.00;98464.25;4398067;32;20187;-73
2021/12/31 00:27:36;;;;;;;13.85;6.93;;;;;;;7.66;100.00;98493.75;4396059;32;20146;-73
2021/12/31 00:30:05;;;;;;;16.45;7.15;;;;;;;7.52;100.00;98458.41;4392295;32;20322;-74
2021/12/31 00:32:32;;;;;;;22.87;7.40;;;;;;;7.84;100.00;98491.87;4399263;32;20947;-73
2021/12/31 00:34:58;;;;;;;8.25;5.40;;;;;;;7.89;100.00;98495.41;4402304;32;20108;-73
2021/12/31 00:37:32;;;;;;;24.05;6.93;;;;;;;7.65;100.00;98468.00;4402198;32;20043;-73
2021/12/31 00:40:01;;;;;;;10.93;6.50;;;;;;;7.77;100.00;98444.59;4399293;32;20061;-73
2021/12/31 00:42:27;;;;;;;22.90;7.32;;;;;;;8.04;100.00;98499.37;4392643;32;20077;-73
2021/12/31 00:44:54;;;;;;;19.70;7.50;;;;;;;8.03;100.00;98481.69;4399029;32;20049;-74
2021/12/31 00:47:21;;;;;;;11.10;6.90;;;;;;;8.09;100.00;98510.19;4397398;32;20108;-73
2021/12/31 00:49:47;;;;;;;11.23;6.20;;;;;;;8.06;100.00;98478.50;4387460;32;20069;-73
2021/12/31 00:52:15;;;;;;;11.57;6.05;;;;;;;8.11;100.00;98502.72;4384279;32;20075;-75
2021/12/31 00:54:43;;;;;;;12.65;6.65;;;;;;;7.93;100.00;98459.03;4400449;32;20381;-73
2021/12/31 00:57:11;;;;;;;10.50;6.53;;;;;;;8.12;100.00;98515.06;4401573;32;20120;-73
2021/12/31 00:59:44;;;;;;;12.60;6.43;;;;;;;8.16;100.00;98510.84;4401846;32;20039;-73
2021/12/31 01:02:12;;;;;;;11.35;6.50;;;;;;;8.26;100.00;98500.25;4399365;32;20103;-75
2021/12/31 01:04:40;;;;;;;12.40;7.00;;;;;;;7.79;100.00;98437.13;4401752;32;20051;-73
2021/12/31 01:07:06;;;;;;;10.00;6.03;;;;;;;8.21;100.00;98518.16;4402267;32;20494;-74
2021/12/31 01:09:33;;;;;;;9.52;5.93;;;;;;;8.30;100.00;98516.66;4397012;32;20422;-74
2021/12/31 01:12:01;;;;;;;10.30;6.43;;;;;;;8.18;100.00;98503.34;4387487;32;20057;-74
2021/12/31 01:17:03;;;;;;;11.30;6.65;;;;;;;8.08;100.00;98484.44;4390149;32;20408;-73
2021/12/31 01:22:16;;;;;;;14.55;7.03;;;;;;;8.27;100.00;98515.28;4400006;32;20034;-73
2021/12/31 01:24:44;;;;;;;14.80;7.47;;;;;;;8.30;100.00;98516.66;4398156;32;20355;-73
2021/12/31 01:27:12;;;;;;;13.68;7.85;;;;;;;8.06;100.00;98486.53;4401490;32;20035;-73
2021/12/31 01:29:40;;;;;;;12.00;6.97;;;;;;;8.05;100.00;98476.91;4402672;32;20073;-73
2021/12/31 01:32:06;;;;;;;18.10;8.73;;;;;;;8.29;100.00;98510.47;4399568;32;20031;-74
2021/12/31 01:34:33;;;;;;;17.73;8.10;;;;;;;8.28;100.00;98508.88;4402013;32;20472;-73
2021/12/31 01:37:01;;;;;;;38.92;9.60;;;;;;;8.02;100.00;98472.81;4400585;32;20064;-73
2021/12/31 01:39:28;;;;;;;15.70;8.60;;;;;;;8.29;100.00;98523.88;4371545;32;20019;-73
2021/12/31 01:41:58;;;;;;;19.52;9.80;;;;;;;8.30;100.00;98514.00;4400817;32;20457;-73
2021/12/31 01:44:36;;;;;;;15.60;9.02;;;;;;;8.35;100.00;98525.59;4400288;32;20072;-73
2021/12/31 01:47:11;;;;;;;19.62;9.95;;;;;;;8.30;100.00;98522.84;4402073;32;20039;-73
2021/12/31 01:49:43;;;;;;;19.27;10.38;;;;;;;8.32;100.00;98523.37;4396782;32;20073;-73
2021/12/31 01:52:10;;;;;;;19.98;8.45;;;;;;;8.27;100.00;98512.59;4394134;32;20423;-74
2021/12/31 01:54:38;;;;;;;19.80;8.50;;;;;;;8.26;100.00;98521.69;4401088;32;20077;-74
2021/12/31 01:57:08;;;;;;;23.77;10.93;;;;;;;8.20;100.00;98533.44;4401568;32;20068;-74
2021/12/31 01:59:37;;;;;;;23.10;11.35;;;;;;;8.30;100.00;98541.62;4402139;32;20031;-73
2021/12/31 02:02:05;;;;;;;27.05;10.80;;;;;;;8.11;100.00;98492.00;4399741;32;20094;-74
2021/12/31 02:04:33;;;;;;;20.50;9.40;;;;;;;7.98;100.00;98483.22;4401759;32;20078;-74
2021/12/31 02:07:00;;;;;;;16.83;9.45;;;;;;;8.12;100.00;98526.62;4399927;32;20379;-74
2021/12/31 02:09:29;;;;;;;18.62;8.95;;;;;;;8.31;100.00;98539.72;4401474;32;20064;-74
2021/12/31 02:11:56;;;;;;;18.20;9.20;;;;;;;8.27;100.00;98555.50;4400751;32;20038;-74
2021/12/31 02:14:24;;;;;;;18.85;8.75;;;;;;;8.30;100.00;98538.94;4401106;32;20038;-73
2021/12/31 02:16:51;;;;;;;18.73;8.30;;;;;;;8.31;100.00;98551.28;4400154;32;20379;-73
2021/12/31 02:19:27;;;;;;;14.18;8.38;;;;;;;8.33;100.00;98565.25;4400494;32;20069;-72
2021/12/31 02:21:55;;;;;;;16.85;9.95;;;;;;;8.19;100.00;98526.44;4392687;32;20422;-75
2021/12/31 02:24:22;;;;;;;25.20;10.15;;;;;;;8.41;100.00;98563.19;4385517;32;20055;-74
2021/12/31 02:26:50;;;;;;;22.23;8.93;;;;;;;8.37;100.00;98569.06;4385826;32;20065;-73
2021/12/31 02:29:17;;;;;;;27.15;9.88;;;;;;;8.15;100.00;98541.38;4386123;32;20405;-73
2021/12/31 02:31:44;;;;;;;29.00;10.35;;;;;;;8.32;100.00;98544.84;4384856;32;20093;-75
2021/12/31 02:34:11;;;;;;;28.12;10.75;;;;;;;8.36;100.00;98556.72;4384848;32;20026;-73
2021/12/31 02:36:38;;;;;;;21.25;10.70;;;;;;;8.27;100.00;98549.34;4384925;32;20039;-73
2021/12/31 02:39:05;;;;;;;19.87;9.63;;;;;;;8.27;100.00;98543.97;4384759;32;20047;-74
2021/12/31 02:41:31;;;;;;;19.12;9.85;;;;;;;8.28;100.00;98530.31;4393021;32;20053;-74
2021/12/31 02:43:58;;;;;;;22.58;10.60;;;;;;;8.12;100.00;98501.66;4398840;32;20039;-75
2021/12/31 02:46:24;;;;;;;18.95;10.80;;;;;;;8.40;100.00;98548.19;4392657;32;20065;-74
2021/12/31 02:48:56;;;;;;;25.05;10.98;;;;;;;8.41;100.00;98528.31;4400009;32;20071;-74
2021/12/31 02:51:27;;;;;;;35.50;10.75;;;;;;;8.34;100.00;98533.88;4401076;32;20068;-74
2021/12/31 02:53:56;;;;;;;24.67;10.98;;;;;;;8.14;100.00;98492.31;4399879;32;20104;-75
2021/12/31 02:56:23;;;;;;;27.90;8.63;;;;;;;8.43;100.00;98531.59;4399454;32;20450;-74
2021/12/31 02:58:50;;;;;;;44.40;11.55;;;;;;;8.40;100.00;98543.63;4400905;32;20039;-74
2021/12/31 03:01:17;;;;;;;25.90;11.18;;;;;;;8.32;100.00;98534.12;4399125;32;20055;-74
2021/12/31 03:03:47;;;;;;;62.83;11.73;;;;;;;8.34;100.00;98540.06;4400947;32;20043;-74
2021/12/31 03:06:16;;;;;;;51.78;13.13;;;;;;;8.41;100.00;98555.16;4398751;32;20090;-75
2021/12/31 03:08:50;;;;;;;45.55;12.82;;;;;;;8.21;100.00;98535.03;4399605;32;20051;-74
2021/12/31 03:11:19;;;;;;;15.63;7.45;;;;;;;8.47;100.00;98551.53;4400513;32;20042;-74
2021/12/31 03:13:51;;;;;;;40.10;12.35;;;;;;;8.20;100.00;98528.06;4400082;32;20065;-74
2021/12/31 03:16:22;;;;;;;47.33;12.10;;;;;;;8.31;100.00;98519.09;4395492;32;20058;-75
2021/12/31 03:18:51;;;;;;;44.60;11.63;;;;;;;8.52;100.00;98556.94;4400346;32;20039;-74
2021/12/31 03:21:21;;;;;;;82.00;14.10;;;;;;;8.54;100.00;98571.75;4387735;32;20042;-75
2021/12/31 03:23:52;;;;;;;47.30;12.30;;;;;;;8.43;100.00;98553.91;4390700;32;20046;-76
2021/12/31 03:26:20;;;;;;;171.23;19.35;;;;;;;8.40;100.00;98521.34;4399526;32;20943;-75
2021/12/31 03:28:48;;;;;;;72.40;13.82;;;;;;;8.41;100.00;98534.53;4393370;32;20035;-74
2021/12/31 03:31:14;;;;;;;55.58;10.88;;;;;;;8.32;100.00;98520.72;4393118;32;20140;-75
2021/12/31 03:33:41;;;;;;;99.35;13.48;;;;;;;8.12;100.00;98486.38;4400112;32;20034;-74
2021/12/31 03:36:08;;;;;;;92.20;12.13;;;;;;;8.40;100.00;98537.47;4397816;32;20321;-73
2021/12/31 03:38:34;;;;;;;104.15;12.77;;;;;;;8.43;100.00;98536.97;4398969;32;20770;-73
2021/12/31 03:41:01;;;;;;;152.32;13.73;;;;;;;8.39;100.00;98525.88;4400367;32;20031;-74
2021/12/31 03:43:28;;;;;;;132.90;14.68;;;;;;;8.24;100.00;98513.09;4401077;32;20374;-73
2021/12/31 03:45:55;;;;;;;109.53;12.35;;;;;;;8.32;100.00;98526.06;4398384;32;20179;-74
2021/12/31 03:48:22;;;;;;;79.60;11.80;;;;;;;7.66;100.00;98444.69;4398809;32;20065;-75
2021/12/31 03:50:49;;;;;;;119.68;13.77;;;;;;;8.15;100.00;98546.75;4386956;32;20065;-74
2021/12/31 03:53:15;;;;;;;47.38;12.20;;;;;;;8.19;100.00;98542.53;4403325;32;20115;-74
2021/12/31 03:55:43;;;;;;;65.05;12.52;;;;;;;8.09;100.00;98537.00;4401912;32;20348;-74
2021/12/31 03:58:09;;;;;;;43.08;12.00;;;;;;;8.15;100.00;98560.16;4386650;32;20413;-75
2021/12/31 04:00:36;;;;;;;113.37;12.82;;;;;;;8.13;100.00;98540.81;4386783;32;20044;-74
2021/12/31 04:03:08;;;;;;;144.75;14.57;;;;;;;7.86;100.00;98500.47;4388327;32;20117;-74
2021/12/31 04:05:36;;;;;;;53.40;11.63;;;;;;;8.19;100.00;98534.47;4398828;32;20042;-74
2021/12/31 04:08:05;;;;;;;23.25;10.65;;;;;;;8.13;100.00;98540.81;4402285;32;20056;-76
2021/12/31 04:10:32;;;;;;;22.92;10.70;;;;;;;8.10;100.00;98534.06;4399613;32;20053;-75
2021/12/31 04:12:59;;;;;;;42.92;9.93;;;;;;;8.06;100.00;98497.25;4402548;32;20050;-74
2021/12/31 04:15:26;;;;;;;40.33;11.52;;;;;;;8.18;100.00;98540.88;4403205;32;20458;-74
2021/12/31 04:17:52;;;;;;;66.78;11.52;;;;;;;7.81;100.00;98499.31;4402508;32;20357;-74
2021/12/31 04:20:22;;;;;;;65.25;11.15;;;;;;;7.80;100.00;98507.59;4399867;32;20096;-75
2021/12/31 04:22:57;;;;;;;194.95;14.30;;;;;;;8.13;100.00;98555.03;4402559;32;20388;-74
2021/12/31 04:25:24;;;;;;;222.12;15.00;;;;;;;8.15;100.00;98554.78;4402406;32;20034;-75
2021/12/31 04:27:51;;;;;;;312.90;17.00;;;;;;;8.11;100.00;98553.66;4390971;32;20349;-74
2021/12/31 04:30:17;;;;;;;262.02;16.65;;;;;;;8.03;100.00;98521.91;4392408;32;20426;-75
2021/12/31 04:32:44;;;;;;;177.43;13.57;;;;;;;7.93;100.00;98515.34;4403410;32;20088;-74
2021/12/31 04:35:11;;;;;;;184.20;14.57;;;;;;;8.14;100.00;98556.66;4401990;32;20064;-74
2021/12/31 04:37:43;;;;;;;202.23;13.85;;;;;;;7.97;100.00;98513.78;4403582;32;20039;-73
2021/12/31 04:40:11;;;;;;;159.55;13.15;;;;;;;7.94;100.00;98519.62;4389322;32;20352;-75
2021/12/31 04:42:41;;;;;;;181.18;12.95;;;;;;;8.24;100.00;98542.59;4402923;32;20076;-74
2021/12/31 04:45:09;;;;;;;106.97;11.38;;;;;;;8.30;100.00;98544.28;4388678;32;20027;-76
2021/12/31 04:47:36;;;;;;;96.50;11.85;;;;;;;8.22;100.00;98515.22;4388851;32;20079;-74
2021/12/31 04:50:04;;;;;;;112.65;12.30;;;;;;;8.39;100.00;98557.28;4399296;32;20064;-75
2021/12/31 04:52:30;;;;;;;33.05;10.52;;;;;;;8.39;100.00;98543.88;4401918;32;20178;-76
2021/12/31 04:54:57;;;;;;;57.15;10.73;;;;;;;8.31;100.00;98562.03;4403043;32;20216;-74
2021/12/31 04:57:26;;;;;;;45.35;9.70;;;;;;;8.14;100.00;98519.12;4381146;32;20035;-74
2021/12/31 04:59:52;;;;;;;72.95;11.25;;;;;;;8.13;100.00;98522.84;4390516;32;20385;-73
2021/12/31 05:02:19;;;;;;;118.72;12.52;;;;;;;8.35;100.00;98539.00;4402959;32;20469;-74
2021/12/31 05:04:46;;;;;;;88.03;12.75;;;;;;;8.44;100.00;98546.66;4389649;32;20062;-73
2021/12/31 05:07:12;;;;;;;206.75;15.10;;;;;;;8.30;100.00;98560.37;4383273;32;20044;-74
2021/12/31 05:09:45;;;;;;;83.10;10.43;;;;;;;8.36;100.00;98554.03;4389193;32;20082;-74
2021/12/31 05:12:17;;;;;;;142.27;13.25;;;;;;;8.06;100.00;98516.88;4388071;32;20043;-75
2021/12/31 05:14:45;;;;;;;181.82;15.68;;;;;;;8.19;100.00;98505.78;4404434;32;20155;-75
2021/12/31 05:17:12;;;;;;;86.05;12.93;;;;;;;8.41;100.00;98549.78;4417821;32;20043;-76
2021/12/31 05:19:43;;;;;;;59.50;11.90;;;;;;;8.40;100.00;98548.19;4407406;32;20081;-76
2021/12/31 05:22:12;;;;;;;43.73;10.97;;;;;;;8.24;100.00;98512.28;4418628;32;20062;-78
2021/12/31 05:24:40;;;;;;;19.25;9.02;;;;;;;8.41;100.00;98528.31;4416450;32;20146;-74
2021/12/31 05:27:07;;;;;;;18.37;9.32;;;;;;;8.49;100.00;98547.53;4400500;32;20030;-75
2021/12/31 05:29:34;;;;;;;15.55;8.15;;;;;;;8.48;100.00;98550.47;4399331;32;20034;-75
2021/12/31 05:32:03;;;;;;;12.68;7.18;;;;;;;8.48;100.00;98548.59;4400915;32;20060;-75
2021/12/31 05:34:35;;;;;;;8.48;6.15;;;;;;;8.48;100.00;98551.28;4402255;32;20086;-75
2021/12/31 05:37:02;;;;;;;7.40;5.18;;;;;;;8.45;100.00;98541.03;4395851;32;20401;-74
2021/12/31 05:39:28;;;;;;;9.68;6.20;;;;;;;8.45;100.00;98550.97;4396030;32;20442;-74
2021/12/31 05:41:55;;;;;;;11.77;5.78;;;;;;;8.24;100.00;98507.72;4401811;32;20459;-75
2021/12/31 05:44:22;;;;;;;8.52;6.53;;;;;;;8.28;100.00;98511.56;4400522;32;20061;-76
2021/12/31 05:46:50;;;;;;;8.38;4.87;;;;;;;8.44;100.00;98538.59;4401310;32;20383;-75
2021/12/31 05:49:16;;;;;;;8.48;5.37;;;;;;;8.54;100.00;98544.91;4386858;32;20043;-75
2021/12/31 05:51:44;;;;;;;9.85;5.53;;;;;;;8.58;100.00;98547.91;4401539;32;20054;-75
2021/12/31 05:54:10;;;;;;;9.32;5.47;;;;;;;8.42;100.00;98524.59;4401270;32;20060;-77
2021/12/31 05:56:36;;;;;;;9.57;5.12;;;;;;;8.29;100.00;98505.09;4394193;32;20071;-77
2021/12/31 05:59:03;;;;;;;8.55;6.53;;;;;;;8.54;100.00;98554.84;4371193;32;20043;-77
2021/12/31 06:01:29;;;;;;;8.90;6.15;;;;;;;8.35;100.00;98506.81;4386013;32;20442;-76
2021/12/31 06:03:56;;;;;;;8.77;6.07;;;;;;;8.60;100.00;98553.87;4401801;32;20042;-76
2021/12/31 06:06:23;;;;;;;10.50;5.50;;;;;;;8.47;100.00;98538.94;4398119;32;20177;-77
2021/12/31 06:08:49;;;;;;;6.47;4.65;;;;;;;8.50;100.00;98537.59;4401155;32;20066;-77
2021/12/31 06:11:16;;;;;;;18.00;5.68;;;;;;;8.54;100.00;98538.75;4399708;32;20038;-76
2021/12/31 06:13:44;;;;;;;8.00;5.80;;;;;;;8.63;100.00;98542.63;4387637;32;20196;-76
2021/12/31 06:16:11;;;;;;;11.27;5.10;;;;;;;8.42;100.00;98511.97;4400170;32;20061;-80
2021/12/31 06:18:39;;;;;;;9.80;6.00;;;;;;;8.64;100.00;98541.56;4396833;32;20351;-76
2021/12/31 06:21:07;;;;;;;11.82;5.95;;;;;;;8.67;100.00;98546.44;4400098;32;20080;-76
2021/12/31 06:23:33;;;;;;;10.05;5.80;;;;;;;8.63;100.00;98553.37;4399555;32;20065;-77
2021/12/31 06:26:00;;;;;;;6.70;4.93;;;;;;;8.64;100.00;98528.13;4394367;32;20047;-77
2021/12/31 06:28:27;;;;;;;8.15;5.35;;;;;;;8.41;100.00;98494.28;4382695;32;20057;-77
2021/12/31 06:30:53;;;;;;;7.50;5.03;;;;;;;8.73;100.00;98558.84;4396947;32;20046;-77
2021/12/31 06:33:20;;;;;;;6.53;5.35;;;;;;;8.71;100.00;98536.81;4389775;32;20078;-77
2021/12/31 06:35:47;;;;;;;9.00;5.22;;;;;;;8.82;100.00;98550.38;4391643;32;20076;-77
2021/12/31 06:38:13;;;;;;;5.62;4.20;;;;;;;8.88;100.00;98557.41;4392636;32;20046;-77
2021/12/31 06:40:40;;;;;;;5.30;4.40;;;;;;;8.65;100.00;98524.41;4387437;32;20043;-77
2021/12/31 06:43:09;;;;;;;6.78;3.90;;;;;;;8.60;100.00;98516.28;4389385;32;20556;-76
2021/12/31 06:45:38;;;;;;;5.30;4.30;;;;;;;8.81;100.00;98559.50;4392900;32;20432;-76
2021/12/31 06:48:05;;;;;;;4.70;4.25;;;;;;;8.80;100.00;98539.06;4376142;32;20460;-77
2021/12/31 06:50:32;;;;;;;4.43;3.92;;;;;;;8.64;100.00;98519.28;4393066;32;20055;-77
2021/12/31 06:53:11;;;;;;;5.60;4.30;;;;;;;8.86;100.00;98551.50;4388077;32;20449;-77
2021/12/31 06:55:38;;;;;;;4.97;3.92;;;;;;;8.96;100.00;98556.97;4385391;32;20054;-77
2021/12/31 06:58:05;;;;;;;5.37;4.03;;;;;;;8.94;100.00;98567.16;4395087;32;20061;-76
2021/12/31 07:00:31;;;;;;;4.10;3.40;;;;;;;8.65;100.00;98496.75;4391475;32;20039;-77
2021/12/31 07:03:12;;;;;;;6.40;3.47;;;;;;;9.08;100.00;98565.72;4387002;32;20058;-75
2021/12/31 07:05:43;;;;;;;4.05;2.87;;;;;;;9.07;100.00;98564.09;4383247;32;20046;-76
2021/12/31 07:08:11;;;;;;;4.90;3.27;;;;;;;9.02;100.00;98572.09;4378180;32;20050;-76
2021/12/31 07:10:37;;;;;;;5.43;3.50;;;;;;;9.00;100.00;98571.53;4390097;32;20161;-76
2021/12/31 07:13:10;;;;;;;3.47;3.17;;;;;;;8.64;100.00;98522.75;4376629;32;20019;-76
2021/12/31 07:15:44;;;;;;;5.87;3.67;;;;;;;8.91;100.00;98559.59;4392664;32;20415;-76
2021/12/31 07:18:11;;;;;;;6.85;3.50;;;;;;;9.03;100.00;98578.25;4379792;32;20096;-76
2021/12/31 07:20:38;;;;;;;2.85;2.33;;;;;;;9.07;100.00;98587.47;4396882;32;20169;-76
2021/12/31 07:23:10;;;;;;;2.92;2.65;;;;;;;9.08;100.00;98589.88;4385297;32;20436;-75
2021/12/31 07:25:40;;;;;;;5.35;3.92;;;;;;;8.90;100.00;98531.13;4395650;32;20395;-74
2021/12/31 07:28:09;;;;;;;11.52;3.70;;;;;;;9.17;100.00;98576.81;4383169;32;20064;-78
2021/12/31 07:30:36;;;;;;;9.43;4.18;;;;;;;8.90;100.00;98548.06;4400193;32;20107;-75
2021/12/31 07:33:03;;;;;;;5.87;3.17;;;;;;;8.76;100.00;98521.81;4387251;32;20477;-76
2021/12/31 07:35:31;;;;;;;9.40;4.40;;;;;;;9.15;100.00;98567.41;4401093;32;20429;-76
2021/12/31 07:37:58;;;;;;;9.13;4.90;;;;;;;9.21;100.00;98579.84;4386980;32;20035;-76
2021/12/31 07:40:41;;;;;;;6.75;5.15;;;;;;;9.18;100.00;98564.22;4398446;32;20166;-76
2021/12/31 07:43:10;;;;;;;10.18;5.93;;;;;;;9.25;100.00;98572.88;4389613;32;20086;-76
2021/12/31 07:45:37;;;;;;;13.00;6.75;;;;;;;9.27;100.00;98568.09;4387679;32;20345;-76
2021/12/31 07:48:04;;;;;;;21.67;8.30;;;;;;;9.25;100.00;98562.13;4401338;32;20060;-78
2021/12/31 07:50:31;;;;;;;15.10;9.00;;;;;;;9.15;100.00;98551.28;4400269;32;20064;-77
2021/12/31 07:52:58;;;;;;;12.00;7.95;;;;;;;9.39;100.00;98589.41;4401941;32;20042;-78
2021/12/31 07:55:25;;;;;;;15.73;9.48;;;;;;;9.09;100.00;98545.87;4395186;32;20043;-77
2021/12/31 07:57:52;;;;;;;17.05;10.18;;;;;;;9.38;100.00;98596.69;4384354;32;20048;-77
2021/12/31 08:00:18;;;;;;;16.95;10.05;;;;;;;9.41;100.00;98569.31;4400214;32;20068;-79
2021/12/31 08:02:45;;;;;;;12.80;8.85;;;;;;;9.22;100.00;98562.63;4400448;32;20173;-77
2021/12/31 08:05:11;;;;;;;19.92;10.90;;;;;;;9.54;100.00;98631.75;4383526;32;20407;-75
2021/12/31 08:07:38;;;;;;;21.98;11.05;;;;;;;9.30;100.00;98572.94;4401319;32;20038;-76
2021/12/31 08:10:05;;;;;;;19.40;11.63;;;;;;;9.52;100.00;98596.28;4400527;32;20441;-77
2021/12/31 08:12:35;;;;;;;29.73;14.10;;;;;;;9.40;100.00;98567.69;4385438;32;20062;-77
2021/12/31 08:15:03;;;;;;;23.30;14.32;;;;;;;9.59;100.00;98586.16;4389497;32;20149;-77
2021/12/31 08:17:30;;;;;;;32.33;15.65;;;;;;;9.64;100.00;98594.25;4394825;32;20356;-77
2021/12/31 08:19:57;;;;;;;22.08;11.95;;;;;;;9.48;100.00;98563.72;4400694;32;20060;-76
2021/12/31 08:22:24;;;;;;;27.95;14.30;;;;;;;9.43;100.00;98577.91;4399861;32;20124;-78
2021/12/31 08:24:51;;;;;;;25.58;13.85;;;;;;;9.64;100.00;98610.38;4400986;32;20059;-78
2021/12/31 08:27:18;;;;;;;19.23;12.05;;;;;;;9.68;100.00;98606.09;4399789;32;20314;-77
2021/12/31 08:29:44;;;;;;;18.00;10.48;;;;;;;9.39;100.00;98582.16;4402071;32;20060;-78
2021/12/31 08:32:11;;;;;;;22.33;13.10;;;;;;;9.49;100.00;98586.03;4399955;32;20039;-80
2021/12/31 08:34:38;;;;;;;11.80;7.68;;;;;;;9.64;100.00;98602.31;4399850;32;20053;-77
2021/12/31 08:37:05;;;;;;;14.98;10.13;;;;;;;9.51;100.00;98625.03;4388065;32;20428;-77
2021/12/31 08:39:32;;;;;;;12.25;7.50;;;;;;;9.50;100.00;98614.53;4386978;32;20060;-77
2021/12/31 08:42:00;;;;;;;12.32;8.00;;;;;;;9.58;100.00;98616.75;4400359;32;20069;-77
2021/12/31 08:44:27;;;;;;;11.45;8.00;;;;;;;9.40;100.00;98610.66;4383687;32;20035;-77
2021/12/31 08:46:54;;;;;;;11.27;6.87;;;;;;;9.42;100.00;98584.34;4385745;32;20078;-77
2021/12/31 08:49:21;;;;;;;16.17;7.20;;;;;;;9.52;100.00;98613.19;4386613;32;20043;-77
2021/12/31 08:51:47;;;;;;;12.20;7.43;;;;;;;9.52;100.00;98620.47;4387563;32;20035;-76
2021/12/31 08:54:14;;;;;;;9.95;6.12;;;;;;;9.56;100.00;98602.78;4386443;32;20383;-79
2021/12/31 08:56:41;;;;;;;8.70;6.78;;;;;;;9.61;100.00;98627.81;4382904;32;20035;-77
2021/12/31 08:59:08;;;;;;;13.88;8.98;;;;;;;9.69;100.00;98631.94;4389868;32;20104;-77
2021/12/31 09:01:35;;;;;;;15.63;7.07;;;;;;;9.71;100.00;98648.62;4391736;32;20031;-77
2021/12/31 09:04:01;;;;;;;16.02;7.82;;;;;;;9.45;100.00;98577.66;4399928;32;20158;-78
2021/12/31 09:06:27;;;;;;;10.25;7.57;;;;;;;9.68;100.00;98627.59;4399232;32;20093;-78
2021/12/31 09:08:55;;;;;;;10.32;7.37;;;;;;;9.73;100.00;98625.00;4400553;32;20080;-77
2021/12/31 09:11:22;;;;;;;12.35;6.97;;;;;;;9.58;100.00;98592.56;4401647;32;20039;-77
2021/12/31 09:13:48;;;;;;;15.63;10.95;;;;;;;9.74;100.00;98648.09;4401208;32;20061;-77
2021/12/31 09:16:16;;;;;;;12.65;8.05;;;;;;;9.56;100.00;98586.66;4384119;32;20043;-77
2021/12/31 09:18:43;;;;;;;16.15;9.45;;;;;;;9.66;100.00;98592.13;4380433;32;20035;-77
2021/12/31 09:21:09;;;;;;;17.33;9.85;;;;;;;9.80;100.00;98609.44;4399256;32;20046;-78
2021/12/31 09:23:36;;;;;;;15.13;9.48;;;;;;;9.79;100.00;98602.44;4400301;32;20094;-77
2021/12/31 09:26:03;;;;;;;15.85;8.93;;;;;;;9.81;100.00;98621.84;4398236;32;20511;-77
2021/12/31 09:28:29;;;;;;;18.12;9.80;;;;;;;9.84;100.00;98651.97;4397822;32;20018;-78
2021/12/31 09:31:00;;;;;;;18.92;10.00;;;;;;;9.78;100.00;98616.13;4400133;32;20105;-76
2021/12/31 09:33:35;;;;;;;18.75;9.68;;;;;;;9.62;100.00;98591.81;4400380;32;20050;-76
2021/12/31 09:36:01;;;;;;;16.95;9.85;;;;;;;9.54;100.00;98600.34;4400185;32;20076;-77
2021/12/31 09:38:28;;;;;;;16.30;10.20;;;;;;;9.92;100.00;98632.69;4396628;32;20371;-77
2021/12/31 09:40:55;;;;;;;15.07;9.88;;;;;;;9.80;100.00;98641.72;4399062;32;20051;-76
2021/12/31 09:43:21;;;;;;;24.23;10.65;;;;;;;9.79;100.00;98623.94;4398447;32;20445;-77
2021/12/31 09:45:51;;;;;;;19.17;10.02;;;;;;;9.88;100.00;98631.59;4399635;32;20051;-77
2021/12/31 09:48:20;;;;;;;12.37;8.63;;;;;;;9.74;100.00;98631.97;4393419;32;20097;-78
2021/12/31 09:50:49;;;;;;;18.98;9.75;;;;;;;9.69;100.00;98645.37;4386797;32;20501;-77
2021/12/31 09:53:18;;;;;;;15.75;10.65;;;;;;;9.84;100.00;98641.22;4399821;32;20206;-76
2021/12/31 09:55:47;;;;;;;16.50;10.90;;;;;;;9.76;100.00;98654.03;4399092;32;20069;-75
2021/12/31 09:58:16;;;;;;;14.73;9.68;;;;;;;9.71;100.00;98643.22;4393640;32;20045;-76
2021/12/31 10:00:47;;;;;;;26.00;12.57;;;;;;;9.72;100.00;98634.13;4386636;32;20808;-76
2021/12/31 10:03:19;;;;;;;19.05;10.38;;;;;;;9.72;100.00;98644.87;4400849;32;20076;-76
2021/12/31 10:05:51;;;;;;;17.27;10.95;;;;;;;9.68;100.00;98632.97;4400602;32;20077;-76
2021/12/31 10:08:38;;;;;;;18.77;11.15;;;;;;;9.71;100.00;98627.09;4394134;32;20450;-75
2021/12/31 10:11:20;;;;;;;16.17;10.20;;;;;;;9.74;100.00;98631.97;4386373;32;20052;-76
2021/12/31 10:13:57;;;;;;;18.87;12.32;;;;;;;9.45;100.00;98599.97;4397673;32;20084;-78
2021/12/31 10:16:28;;;;;;;16.50;10.52;;;;;;;9.59;100.00;98596.91;4396429;32;20453;-77
2021/12/31 10:19:13;;;;;;;14.32;8.90;;;;;;;9.68;100.00;98661.75;4386763;32;20043;-77
2021/12/31 10:21:41;;;;;;;18.37;9.52;;;;;;;9.68;100.00;98627.59;4390312;32;20064;-78
2021/12/31 10:24:26;;;;;;;16.02;10.77;;;;;;;9.69;100.00;98623.88;4393343;32;20061;-76
2021/12/31 10:26:54;;;;;;;16.15;9.63;;;;;;;9.75;100.00;98639.00;4394793;32;20035;-76
2021/12/31 10:29:21;;;;;;;12.25;9.93;;;;;;;9.82;100.00;98623.44;4384941;32;20031;-75
2021/12/31 10:31:53;;;;;;;14.23;10.32;;;;;;;9.59;100.00;98604.97;4400801;32;20068;-76
2021/12/31 10:34:27;;;;;;;13.43;10.30;;;;;;;9.70;100.00;98633.56;4398963;32;20089;-76
2021/12/31 10:36:53;;;;;;;21.77;9.68;;;;;;;9.72;100.00;98639.50;4392786;32;20035;-77
2021/12/31 10:39:25;;;;;;;9.35;7.90;;;;;;;9.66;100.00;98629.75;4386872;32;20062;-76
2021/12/31 10:42:04;;;;;;;20.42;9.40;;;;;;;9.64;100.00;98631.88;4397577;32;20059;-77
2021/12/31 10:44:52;;;;;;;13.57;8.90;;;;;;;9.40;100.00;98591.84;4379231;32;20191;-78
2021/12/31 10:47:28;;;;;;;16.23;9.13;;;;;;;9.53;100.00;98619.41;4385374;32;20104;-75
2021/12/31 10:50:00;;;;;;;9.00;6.85;;;;;;;9.66;100.00;98613.63;4399675;32;20068;-75
2021/12/31 10:52:35;;;;;;;10.00;7.75;;;;;;;9.61;100.00;98624.31;4391453;32;20089;-75
2021/12/31 10:55:26;;;;;;;13.35;8.25;;;;;;;9.63;100.00;98625.69;4383491;32;20035;-76
2021/12/31 10:58:04;;;;;;;10.10;7.03;;;;;;;9.69;100.00;98618.50;4393924;32;20068;-74
2021/12/31 11:00:49;;;;;;;8.55;7.70;;;;;;;9.58;100.00;98601.44;4380240;32;20371;-74
2021/12/31 11:03:17;;;;;;;7.45;6.45;;;;;;;9.71;100.00;98599.41;4386758;32;20436;-75
2021/12/31 11:05:44;;;;;;;8.73;6.62;;;;;;;9.59;100.00;98591.53;4397684;32;20039;-75
2021/12/31 11:08:13;;;;;;;10.07;6.80;;;;;;;9.40;100.00;98581.09;4398478;32;20055;-75
2021/12/31 11:10:40;;;;;;;9.63;6.85;;;;;;;9.53;100.00;98565.66;4398139;32;20371;-75
2021/12/31 11:13:14;;;;;;;14.02;6.75;;;;;;;9.79;100.00;98602.44;4399904;32;20449;-75
2021/12/31 11:15:43;;;;;;;15.23;9.05;;;;;;;9.80;100.00;98608.66;4399520;32;20084;-74
2021/12/31 11:18:12;;;;;;;10.68;6.85;;;;;;;9.66;100.00;98567.91;4398598;32;20359;-75
2021/12/31 11:20:40;;;;;;;11.52;6.22;;;;;;;9.74;100.00;98578.19;4385170;32;20035;-74
2021/12/31 11:23:07;;;;;;;9.48;6.95;;;;;;;9.77;100.00;98599.19;4396463;32;20108;-77
2021/12/31 11:25:34;;;;;;;10.73;6.47;;;;;;;9.77;100.00;98593.03;4384018;32;20053;-75
2021/12/31 11:28:00;;;;;;;9.57;6.35;;;;;;;9.81;100.00;98610.25;4397097;32;20123;-75
2021/12/31 11:30:33;;;;;;;10.10;6.20;;;;;;;9.79;100.00;98591.69;4396675;32;20131;-76
2021/12/31 11:33:07;;;;;;;8.38;6.20;;;;;;;9.77;100.00;98591.13;4396015;32;20070;-76
2021/12/31 11:35:46;;;;;;;11.95;6.85;;;;;;;9.78;100.00;98600.84;4400165;32;20077;-74
2021/12/31 11:38:13;;;;;;;12.60;6.97;;;;;;;9.61;100.00;98578.63;4400249;32;20082;-76